sensor_id;sensor_type;location;lat;lon;timestamp;P1;durP1;ratioP1;P2;durP2;ratioP2
73283;SDS011;61519;60.050;18.582;2022-10-16T00:01:18;29.33;;;13.67;;
73283;SDS011;61519;60.050;18.582;2022-10-16T00:03:46;32.95;;;15.35;;
73283;SDS011;61519;60.050;18.582;2022-10-16T00:06:12;32.95;;;14.73;;
73283;SDS011;61519;60.050;18.582;2022-10-16T00:08:38;35.45;;;15.82;;
73283;SDS011;61519;60.050;18.582;2022-10-16T00:13:34;33.00;;;14.17;;
73283;SDS011;61519;60.050;18.582;2022-10-16T00:16:01;35.17;;;15.43;;
73283;SDS011;61519;60.050;18.582;2022-10-16T00:18:27;34.42;;;15.57;;
73283;SDS011;61519;60.050;18.582;2022-10-16T00:20:53;33.70;;;14.75;;
73283;SDS011;61519;60.050;18.582;2022-10-16T00:23:18;31.10;;;14.37;;
73283;SDS011;61519;60.050;18.582;2022-10-16T00:25:44;36.05;;;14.70;;
73283;SDS011;61519;60.050;18.582;2022-10-16T00:28:10;33.20;;;14.67;;
73283;SDS011;61519;60.050;18.582;2022-10-16T00:30:38;29.77;;;13.80;;
73283;SDS011;61519;60.050;18.582;2022-10-16T00:33:04;30.45;;;13.40;;
73283;SDS011;61519;60.050;18.582;2022-10-16T00:35:30;28.77;;;14.73;;
73283;SDS011;61519;60.050;18.582;2022-10-16T00:37:56;27.38;;;13.63;;
73283;SDS011;61519;60.050;18.582;2022-10-16T00:40:21;26.03;;;13.10;;
73283;SDS011;61519;60.050;18.582;2022-10-16T00:42:47;25.73;;;13.63;;
73283;SDS011;61519;60.050;18.582;2022-10-16T00:45:12;24.97;;;12.87;;
73283;SDS011;61519;60.050;18.582;2022-10-16T00:47:42;24.43;;;12.77;;
73283;SDS011;61519;60.050;18.582;2022-10-16T00:52:53;27.88;;;13.43;;
73283;SDS011;61519;60.050;18.582;2022-10-16T00:55:19;28.50;;;12.80;;
73283;SDS011;61519;60.050;18.582;2022-10-16T00:57:45;30.85;;;13.60;;
73283;SDS011;61519;60.050;18.582;2022-10-16T01:00:15;28.33;;;13.48;;
73283;SDS011;61519;60.050;18.582;2022-10-16T01:02:43;36.40;;;14.13;;
73283;SDS011;61519;60.050;18.582;2022-10-16T01:05:08;27.27;;;12.23;;
73283;SDS011;61519;60.050;18.582;2022-10-16T01:13:04;28.13;;;13.02;;
73283;SDS011;61519;60.050;18.582;2022-10-16T01:20:35;26.17;;;13.00;;
73283;SDS011;61519;60.050;18.582;2022-10-16T01:31:44;30.75;;;12.55;;
73283;SDS011;61519;60.050;18.582;2022-10-16T01:34:18;24.43;;;12.57;;
73283;SDS011;61519;60.050;18.582;2022-10-16T01:36:51;25.15;;;12.00;;
73283;SDS011;61519;60.050;18.582;2022-10-16T01:39:22;24.90;;;11.95;;
73283;SDS011;61519;60.050;18.582;2022-10-16T01:41:55;25.33;;;12.80;;
73283;SDS011;61519;60.050;18.582;2022-10-16T01:44:33;27.20;;;13.15;;
73283;SDS011;61519;60.050;18.582;2022-10-16T01:47:01;26.67;;;12.77;;
73283;SDS011;61519;60.050;18.582;2022-10-16T01:49:30;25.67;;;12.65;;
73283;SDS011;61519;60.050;18.582;2022-10-16T01:51:58;27.73;;;12.48;;
73283;SDS011;61519;60.050;18.582;2022-10-16T01:54:28;29.10;;;13.25;;
73283;SDS011;61519;60.050;18.582;2022-10-16T01:56:56;23.77;;;13.27;;
73283;SDS011;61519;60.050;18.582;2022-10-16T01:59:23;26.50;;;12.60;;
73283;SDS011;61519;60.050;18.582;2022-10-16T02:01:52;30.50;;;12.75;;
73283;SDS011;61519;60.050;18.582;2022-10-16T02:04:32;27.98;;;12.57;;
73283;SDS011;61519;60.050;18.582;2022-10-16T02:06:59;26.08;;;11.93;;
73283;SDS011;61519;60.050;18.582;2022-10-16T02:09:25;24.13;;;11.57;;
73283;SDS011;61519;60.050;18.582;2022-10-16T02:11:52;24.98;;;12.45;;
73283;SDS011;61519;60.050;18.582;2022-10-16T02:14:19;26.83;;;11.35;;
73283;SDS011;61519;60.050;18.582;2022-10-16T02:16:46;22.70;;;11.25;;
73283;SDS011;61519;60.050;18.582;2022-10-16T02:19:12;22.05;;;11.52;;
73283;SDS011;61519;60.050;18.582;2022-10-16T02:21:47;27.85;;;12.27;;
73283;SDS011;61519;60.050;18.582;2022-10-16T02:27:02;21.08;;;10.52;;
73283;SDS011;61519;60.050;18.582;2022-10-16T02:29:30;24.20;;;11.00;;
73283;SDS011;61519;60.050;18.582;2022-10-16T02:31:58;20.83;;;10.15;;
73283;SDS011;61519;60.050;18.582;2022-10-16T02:34:26;20.65;;;10.30;;
73283;SDS011;61519;60.050;18.582;2022-10-16T02:36:53;16.70;;;9.50;;
73283;SDS011;61519;60.050;18.582;2022-10-16T02:39:20;18.75;;;9.65;;
73283;SDS011;61519;60.050;18.582;2022-10-16T02:41:45;18.03;;;7.97;;
73283;SDS011;61519;60.050;18.582;2022-10-16T02:44:11;18.17;;;8.50;;
73283;SDS011;61519;60.050;18.582;2022-10-16T02:46:36;16.90;;;8.60;;
73283;SDS011;61519;60.050;18.582;2022-10-16T02:49:02;14.80;;;8.40;;
73283;SDS011;61519;60.050;18.582;2022-10-16T02:51:27;16.00;;;8.50;;
73283;SDS011;61519;60.050;18.582;2022-10-16T02:53:53;15.53;;;7.73;;
73283;SDS011;61519;60.050;18.582;2022-10-16T02:56:18;18.20;;;8.50;;
73283;SDS011;61519;60.050;18.582;2022-10-16T02:58:44;16.03;;;8.47;;
73283;SDS011;61519;60.050;18.582;2022-10-16T03:01:09;16.60;;;8.25;;
73283;SDS011;61519;60.050;18.582;2022-10-16T03:03:37;20.55;;;9.45;;
73283;SDS011;61519;60.050;18.582;2022-10-16T03:06:03;16.50;;;8.77;;
73283;SDS011;61519;60.050;18.582;2022-10-16T03:08:29;16.90;;;8.73;;
73283;SDS011;61519;60.050;18.582;2022-10-16T03:10:54;17.50;;;8.43;;
73283;SDS011;61519;60.050;18.582;2022-10-16T03:13:20;21.43;;;9.03;;
73283;SDS011;61519;60.050;18.582;2022-10-16T03:15:45;15.73;;;8.53;;
73283;SDS011;61519;60.050;18.582;2022-10-16T03:18:11;18.58;;;9.00;;
73283;SDS011;61519;60.050;18.582;2022-10-16T03:20:37;18.60;;;8.60;;
73283;SDS011;61519;60.050;18.582;2022-10-16T03:23:02;17.20;;;7.97;;
73283;SDS011;61519;60.050;18.582;2022-10-16T03:25:28;17.92;;;7.63;;
73283;SDS011;61519;60.050;18.582;2022-10-16T03:27:53;15.07;;;7.80;;
73283;SDS011;61519;60.050;18.582;2022-10-16T03:30:19;13.53;;;7.47;;
73283;SDS011;61519;60.050;18.582;2022-10-16T03:32:44;15.02;;;7.40;;
73283;SDS011;61519;60.050;18.582;2022-10-16T03:35:10;13.67;;;6.93;;
73283;SDS011;61519;60.050;18.582;2022-10-16T03:37:35;17.83;;;6.70;;
73283;SDS011;61519;60.050;18.582;2022-10-16T03:40:01;13.38;;;7.13;;
73283;SDS011;61519;60.050;18.582;2022-10-16T03:42:28;14.40;;;7.22;;
73283;SDS011;61519;60.050;18.582;2022-10-16T03:44:53;11.90;;;6.70;;
73283;SDS011;61519;60.050;18.582;2022-10-16T03:47:19;16.02;;;7.05;;
73283;SDS011;61519;60.050;18.582;2022-10-16T03:49:47;11.27;;;7.03;;
73283;SDS011;61519;60.050;18.582;2022-10-16T03:52:13;12.45;;;6.85;;
73283;SDS011;61519;60.050;18.582;2022-10-16T03:54:38;13.52;;;6.85;;
73283;SDS011;61519;60.050;18.582;2022-10-16T03:57:04;11.47;;;6.50;;
73283;SDS011;61519;60.050;18.582;2022-10-16T03:59:29;14.93;;;7.20;;
73283;SDS011;61519;60.050;18.582;2022-10-16T04:01:55;13.30;;;6.90;;
73283;SDS011;61519;60.050;18.582;2022-10-16T04:04:20;11.65;;;6.93;;
73283;SDS011;61519;60.050;18.582;2022-10-16T04:06:46;12.77;;;7.03;;
73283;SDS011;61519;60.050;18.582;2022-10-16T04:09:11;11.80;;;6.47;;
73283;SDS011;61519;60.050;18.582;2022-10-16T04:11:37;15.52;;;7.45;;
73283;SDS011;61519;60.050;18.582;2022-10-16T04:14:02;12.50;;;6.70;;
73283;SDS011;61519;60.050;18.582;2022-10-16T04:16:28;11.57;;;6.30;;
73283;SDS011;61519;60.050;18.582;2022-10-16T04:18:53;13.43;;;7.53;;
73283;SDS011;61519;60.050;18.582;2022-10-16T04:21:19;12.47;;;7.23;;
73283;SDS011;61519;60.050;18.582;2022-10-16T04:23:44;13.13;;;6.68;;
73283;SDS011;61519;60.050;18.582;2022-10-16T04:26:09;12.20;;;6.17;;
73283;SDS011;61519;60.050;18.582;2022-10-16T04:28:35;14.00;;;6.77;;
73283;SDS011;61519;60.050;18.582;2022-10-16T04:31:03;12.05;;;6.80;;
73283;SDS011;61519;60.050;18.582;2022-10-16T04:33:29;13.15;;;6.72;;
73283;SDS011;61519;60.050;18.582;2022-10-16T04:36:01;12.13;;;6.00;;
73283;SDS011;61519;60.050;18.582;2022-10-16T04:38:27;13.05;;;7.50;;
73283;SDS011;61519;60.050;18.582;2022-10-16T04:40:53;14.00;;;6.67;;
73283;SDS011;61519;60.050;18.582;2022-10-16T04:43:18;13.48;;;7.32;;
73283;SDS011;61519;60.050;18.582;2022-10-16T04:45:44;12.00;;;6.33;;
73283;SDS011;61519;60.050;18.582;2022-10-16T04:48:10;12.30;;;6.63;;
73283;SDS011;61519;60.050;18.582;2022-10-16T04:50:35;12.48;;;7.28;;
73283;SDS011;61519;60.050;18.582;2022-10-16T04:53:01;13.50;;;7.13;;
73283;SDS011;61519;60.050;18.582;2022-10-16T04:55:26;10.93;;;6.63;;
73283;SDS011;61519;60.050;18.582;2022-10-16T04:57:52;12.03;;;7.07;;
73283;SDS011;61519;60.050;18.582;2022-10-16T05:00:17;11.52;;;6.47;;
73283;SDS011;61519;60.050;18.582;2022-10-16T05:02:43;13.23;;;7.50;;
73283;SDS011;61519;60.050;18.582;2022-10-16T05:05:08;13.13;;;7.37;;
73283;SDS011;61519;60.050;18.582;2022-10-16T05:07:34;11.60;;;7.10;;
73283;SDS011;61519;60.050;18.582;2022-10-16T05:09:59;11.27;;;6.40;;
73283;SDS011;61519;60.050;18.582;2022-10-16T05:12:24;12.10;;;6.57;;
73283;SDS011;61519;60.050;18.582;2022-10-16T05:14:50;13.03;;;6.43;;
73283;SDS011;61519;60.050;18.582;2022-10-16T05:17:16;14.25;;;6.13;;
73283;SDS011;61519;60.050;18.582;2022-10-16T05:19:41;11.20;;;6.33;;
73283;SDS011;61519;60.050;18.582;2022-10-16T05:22:06;12.67;;;6.17;;
73283;SDS011;61519;60.050;18.582;2022-10-16T05:24:32;10.70;;;6.13;;
73283;SDS011;61519;60.050;18.582;2022-10-16T05:26:58;16.60;;;7.40;;
73283;SDS011;61519;60.050;18.582;2022-10-16T05:29:23;11.13;;;6.83;;
73283;SDS011;61519;60.050;18.582;2022-10-16T05:31:52;13.73;;;6.77;;
73283;SDS011;61519;60.050;18.582;2022-10-16T05:34:18;12.90;;;6.88;;
73283;SDS011;61519;60.050;18.582;2022-10-16T05:36:44;13.50;;;6.60;;
73283;SDS011;61519;60.050;18.582;2022-10-16T05:39:10;11.20;;;6.15;;
73283;SDS011;61519;60.050;18.582;2022-10-16T05:41:36;12.63;;;6.90;;
73283;SDS011;61519;60.050;18.582;2022-10-16T05:44:03;13.52;;;6.65;;
73283;SDS011;61519;60.050;18.582;2022-10-16T05:46:30;12.27;;;6.72;;
73283;SDS011;61519;60.050;18.582;2022-10-16T05:48:55;13.37;;;6.00;;
73283;SDS011;61519;60.050;18.582;2022-10-16T05:51:21;12.27;;;6.43;;
73283;SDS011;61519;60.050;18.582;2022-10-16T05:53:47;10.65;;;5.93;;
73283;SDS011;61519;60.050;18.582;2022-10-16T05:56:12;10.47;;;5.73;;
73283;SDS011;61519;60.050;18.582;2022-10-16T05:58:38;9.70;;;5.87;;
73283;SDS011;61519;60.050;18.582;2022-10-16T06:01:15;10.68;;;6.07;;
73283;SDS011;61519;60.050;18.582;2022-10-16T06:03:42;12.27;;;5.65;;
73283;SDS011;61519;60.050;18.582;2022-10-16T06:06:11;10.97;;;6.03;;
73283;SDS011;61519;60.050;18.582;2022-10-16T06:08:41;12.85;;;6.13;;
73283;SDS011;61519;60.050;18.582;2022-10-16T06:11:08;14.27;;;5.82;;
73283;SDS011;61519;60.050;18.582;2022-10-16T06:13:35;9.63;;;5.93;;
73283;SDS011;61519;60.050;18.582;2022-10-16T06:16:01;8.65;;;5.45;;
73283;SDS011;61519;60.050;18.582;2022-10-16T06:18:27;10.73;;;6.30;;
73283;SDS011;61519;60.050;18.582;2022-10-16T06:20:53;12.00;;;5.28;;
73283;SDS011;61519;60.050;18.582;2022-10-16T06:23:19;10.25;;;5.20;;
73283;SDS011;61519;60.050;18.582;2022-10-16T06:25:45;11.48;;;5.47;;
73283;SDS011;61519;60.050;18.582;2022-10-16T06:28:10;9.15;;;5.15;;
73283;SDS011;61519;60.050;18.582;2022-10-16T06:30:36;8.83;;;5.30;;
73283;SDS011;61519;60.050;18.582;2022-10-16T06:33:01;9.50;;;4.30;;
73283;SDS011;61519;60.050;18.582;2022-10-16T06:35:27;9.57;;;4.68;;
73283;SDS011;61519;60.050;18.582;2022-10-16T06:37:54;10.13;;;5.20;;
73283;SDS011;61519;60.050;18.582;2022-10-16T06:40:19;9.27;;;4.50;;
73283;SDS011;61519;60.050;18.582;2022-10-16T06:42:45;8.80;;;4.50;;
73283;SDS011;61519;60.050;18.582;2022-10-16T06:45:10;10.87;;;5.00;;
73283;SDS011;61519;60.050;18.582;2022-10-16T06:47:36;8.95;;;4.38;;
73283;SDS011;61519;60.050;18.582;2022-10-16T06:50:02;8.53;;;4.40;;
73283;SDS011;61519;60.050;18.582;2022-10-16T06:52:28;8.65;;;4.32;;
73283;SDS011;61519;60.050;18.582;2022-10-16T06:54:54;7.67;;;4.20;;
73283;SDS011;61519;60.050;18.582;2022-10-16T06:57:19;7.60;;;4.00;;
73283;SDS011;61519;60.050;18.582;2022-10-16T06:59:45;7.20;;;4.00;;
73283;SDS011;61519;60.050;18.582;2022-10-16T07:02:10;6.70;;;4.33;;
73283;SDS011;61519;60.050;18.582;2022-10-16T07:04:36;7.30;;;4.70;;
73283;SDS011;61519;60.050;18.582;2022-10-16T07:07:01;6.80;;;3.85;;
73283;SDS011;61519;60.050;18.582;2022-10-16T07:09:27;7.20;;;4.07;;
73283;SDS011;61519;60.050;18.582;2022-10-16T07:11:52;7.33;;;4.20;;
73283;SDS011;61519;60.050;18.582;2022-10-16T07:14:18;8.88;;;4.20;;
73283;SDS011;61519;60.050;18.582;2022-10-16T07:16:45;7.27;;;3.87;;
73283;SDS011;61519;60.050;18.582;2022-10-16T07:19:10;6.30;;;3.72;;
73283;SDS011;61519;60.050;18.582;2022-10-16T07:21:38;6.60;;;4.03;;
73283;SDS011;61519;60.050;18.582;2022-10-16T07:24:05;6.93;;;4.32;;
73283;SDS011;61519;60.050;18.582;2022-10-16T07:26:32;7.57;;;4.35;;
73283;SDS011;61519;60.050;18.582;2022-10-16T07:29:00;6.23;;;3.53;;
73283;SDS011;61519;60.050;18.582;2022-10-16T07:31:26;8.45;;;4.20;;
73283;SDS011;61519;60.050;18.582;2022-10-16T07:33:52;8.32;;;4.25;;
73283;SDS011;61519;60.050;18.582;2022-10-16T07:36:18;8.40;;;4.43;;
73283;SDS011;61519;60.050;18.582;2022-10-16T07:38:45;5.97;;;3.60;;
73283;SDS011;61519;60.050;18.582;2022-10-16T07:41:12;8.48;;;4.13;;
73283;SDS011;61519;60.050;18.582;2022-10-16T07:43:52;6.50;;;4.07;;
73283;SDS011;61519;60.050;18.582;2022-10-16T07:46:18;8.35;;;3.17;;
73283;SDS011;61519;60.050;18.582;2022-10-16T07:48:45;8.40;;;4.10;;
73283;SDS011;61519;60.050;18.582;2022-10-16T07:51:12;9.03;;;3.73;;
73283;SDS011;61519;60.050;18.582;2022-10-16T07:53:39;6.65;;;3.63;;
73283;SDS011;61519;60.050;18.582;2022-10-16T07:56:05;6.80;;;3.77;;
73283;SDS011;61519;60.050;18.582;2022-10-16T07:58:32;6.20;;;3.78;;
73283;SDS011;61519;60.050;18.582;2022-10-16T08:00:58;7.88;;;3.67;;
73283;SDS011;61519;60.050;18.582;2022-10-16T08:03:24;6.55;;;3.47;;
73283;SDS011;61519;60.050;18.582;2022-10-16T08:05:50;6.63;;;3.27;;
73283;SDS011;61519;60.050;18.582;2022-10-16T08:08:16;5.53;;;3.72;;
73283;SDS011;61519;60.050;18.582;2022-10-16T08:10:43;5.80;;;2.92;;
73283;SDS011;61519;60.050;18.582;2022-10-16T08:13:09;6.60;;;2.83;;
73283;SDS011;61519;60.050;18.582;2022-10-16T08:15:34;5.45;;;2.47;;
73283;SDS011;61519;60.050;18.582;2022-10-16T08:18:02;6.27;;;3.23;;
73283;SDS011;61519;60.050;18.582;2022-10-16T08:20:29;5.82;;;2.80;;
73283;SDS011;61519;60.050;18.582;2022-10-16T08:22:55;4.93;;;2.75;;
73283;SDS011;61519;60.050;18.582;2022-10-16T08:25:22;6.83;;;2.70;;
73283;SDS011;61519;60.050;18.582;2022-10-16T08:27:48;4.93;;;2.38;;
73283;SDS011;61519;60.050;18.582;2022-10-16T08:30:14;5.87;;;2.80;;
73283;SDS011;61519;60.050;18.582;2022-10-16T08:32:40;4.57;;;2.78;;
73283;SDS011;61519;60.050;18.582;2022-10-16T08:35:09;5.32;;;2.50;;
73283;SDS011;61519;60.050;18.582;2022-10-16T08:37:35;7.88;;;2.60;;
73283;SDS011;61519;60.050;18.582;2022-10-16T08:40:03;6.70;;;2.93;;
73283;SDS011;61519;60.050;18.582;2022-10-16T08:42:53;5.13;;;2.80;;
73283;SDS011;61519;60.050;18.582;2022-10-16T08:45:27;4.82;;;2.53;;
73283;SDS011;61519;60.050;18.582;2022-10-16T08:50:56;5.28;;;2.58;;
73283;SDS011;61519;60.050;18.582;2022-10-16T08:53:46;4.67;;;2.93;;
73283;SDS011;61519;60.050;18.582;2022-10-16T08:56:17;5.20;;;2.95;;
73283;SDS011;61519;60.050;18.582;2022-10-16T08:58:44;7.18;;;3.00;;
73283;SDS011;61519;60.050;18.582;2022-10-16T09:01:12;6.35;;;2.40;;
73283;SDS011;61519;60.050;18.582;2022-10-16T09:06:38;5.43;;;3.07;;
73283;SDS011;61519;60.050;18.582;2022-10-16T09:14:58;6.28;;;3.10;;
73283;SDS011;61519;60.050;18.582;2022-10-16T09:20:25;4.63;;;2.80;;
73283;SDS011;61519;60.050;18.582;2022-10-16T09:23:10;5.47;;;2.22;;
73283;SDS011;61519;60.050;18.582;2022-10-16T09:25:40;5.47;;;2.20;;
73283;SDS011;61519;60.050;18.582;2022-10-16T09:28:09;4.32;;;2.65;;
73283;SDS011;61519;60.050;18.582;2022-10-16T09:30:35;6.60;;;3.25;;
73283;SDS011;61519;60.050;18.582;2022-10-16T09:33:01;5.63;;;2.63;;
73283;SDS011;61519;60.050;18.582;2022-10-16T09:35:31;5.03;;;2.20;;
73283;SDS011;61519;60.050;18.582;2022-10-16T09:37:58;4.78;;;2.38;;
73283;SDS011;61519;60.050;18.582;2022-10-16T09:42:57;4.40;;;2.10;;
73283;SDS011;61519;60.050;18.582;2022-10-16T09:45:37;6.07;;;2.25;;
73283;SDS011;61519;60.050;18.582;2022-10-16T09:48:12;5.37;;;2.50;;
73283;SDS011;61519;60.050;18.582;2022-10-16T09:50:43;7.28;;;2.47;;
73283;SDS011;61519;60.050;18.582;2022-10-16T09:53:12;4.38;;;2.10;;
73283;SDS011;61519;60.050;18.582;2022-10-16T09:55:52;5.43;;;2.05;;
73283;SDS011;61519;60.050;18.582;2022-10-16T09:58:21;5.05;;;2.35;;
73283;SDS011;61519;60.050;18.582;2022-10-16T10:00:53;5.50;;;2.35;;
73283;SDS011;61519;60.050;18.582;2022-10-16T10:03:36;5.80;;;2.15;;
73283;SDS011;61519;60.050;18.582;2022-10-16T10:06:05;4.53;;;2.00;;
73283;SDS011;61519;60.050;18.582;2022-10-16T10:08:39;5.20;;;2.17;;
73283;SDS011;61519;60.050;18.582;2022-10-16T10:11:04;6.55;;;1.83;;
73283;SDS011;61519;60.050;18.582;2022-10-16T10:13:30;5.13;;;2.08;;
73283;SDS011;61519;60.050;18.582;2022-10-16T10:15:55;5.67;;;1.97;;
73283;SDS011;61519;60.050;18.582;2022-10-16T10:18:21;4.50;;;1.77;;
73283;SDS011;61519;60.050;18.582;2022-10-16T10:20:58;5.35;;;2.03;;
73283;SDS011;61519;60.050;18.582;2022-10-16T10:23:26;4.03;;;1.55;;
73283;SDS011;61519;60.050;18.582;2022-10-16T10:26:04;4.70;;;2.33;;
73283;SDS011;61519;60.050;18.582;2022-10-16T10:28:43;4.40;;;2.17;;
73283;SDS011;61519;60.050;18.582;2022-10-16T10:31:36;5.20;;;1.90;;
73283;SDS011;61519;60.050;18.582;2022-10-16T10:36:49;4.97;;;1.70;;
73283;SDS011;61519;60.050;18.582;2022-10-16T10:39:29;4.85;;;2.15;;
73283;SDS011;61519;60.050;18.582;2022-10-16T10:50:07;6.15;;;1.90;;
73283;SDS011;61519;60.050;18.582;2022-10-16T10:53:18;7.00;;;2.10;;
73283;SDS011;61519;60.050;18.582;2022-10-16T10:55:52;4.87;;;1.80;;
73283;SDS011;61519;60.050;18.582;2022-10-16T11:01:30;5.05;;;1.50;;
73283;SDS011;61519;60.050;18.582;2022-10-16T11:07:36;4.40;;;1.92;;
73283;SDS011;61519;60.050;18.582;2022-10-16T11:10:33;5.67;;;1.73;;
73283;SDS011;61519;60.050;18.582;2022-10-16T11:12:45;8.68;;;1.75;;
73283;SDS011;61519;60.050;18.582;2022-10-16T11:15:23;5.28;;;1.95;;
73283;SDS011;61519;60.050;18.582;2022-10-16T11:18:12;3.65;;;1.27;;
73283;SDS011;61519;60.050;18.582;2022-10-16T11:23:21;4.03;;;1.60;;
73283;SDS011;61519;60.050;18.582;2022-10-16T11:25:50;6.50;;;1.67;;
73283;SDS011;61519;60.050;18.582;2022-10-16T11:36:41;4.37;;;1.73;;
73283;SDS011;61519;60.050;18.582;2022-10-16T11:39:13;4.07;;;1.58;;
73283;SDS011;61519;60.050;18.582;2022-10-16T11:47:12;5.10;;;1.92;;
73283;SDS011;61519;60.050;18.582;2022-10-16T11:49:46;4.87;;;1.63;;
73283;SDS011;61519;60.050;18.582;2022-10-16T11:54:44;5.50;;;1.77;;
73283;SDS011;61519;60.050;18.582;2022-10-16T11:57:23;4.35;;;1.20;;
73283;SDS011;61519;60.050;18.582;2022-10-16T12:05:01;4.70;;;1.17;;
73283;SDS011;61519;60.050;18.582;2022-10-16T12:07:39;4.63;;;1.40;;
73283;SDS011;61519;60.050;18.582;2022-10-16T12:10:19;4.30;;;1.10;;
73283;SDS011;61519;60.050;18.582;2022-10-16T12:12:49;3.72;;;1.20;;
73283;SDS011;61519;60.050;18.582;2022-10-16T12:15:28;5.70;;;1.50;;
73283;SDS011;61519;60.050;18.582;2022-10-16T12:17:56;7.03;;;1.50;;
73283;SDS011;61519;60.050;18.582;2022-10-16T12:20:23;4.43;;;1.38;;
73283;SDS011;61519;60.050;18.582;2022-10-16T12:23:01;3.47;;;0.93;;
73283;SDS011;61519;60.050;18.582;2022-10-16T12:25:34;6.38;;;1.50;;
73283;SDS011;61519;60.050;18.582;2022-10-16T12:28:17;5.93;;;1.20;;
73283;SDS011;61519;60.050;18.582;2022-10-16T12:30:52;6.50;;;1.42;;
73283;SDS011;61519;60.050;18.582;2022-10-16T12:33:23;9.53;;;1.30;;
73283;SDS011;61519;60.050;18.582;2022-10-16T12:35:53;4.45;;;1.13;;
73283;SDS011;61519;60.050;18.582;2022-10-16T12:38:19;3.15;;;0.85;;
73283;SDS011;61519;60.050;18.582;2022-10-16T12:40:54;6.22;;;1.20;;
73283;SDS011;61519;60.050;18.582;2022-10-16T12:48:37;4.13;;;1.40;;
73283;SDS011;61519;60.050;18.582;2022-10-16T12:51:22;7.32;;;1.70;;
73283;SDS011;61519;60.050;18.582;2022-10-16T12:59:51;6.53;;;1.40;;
73283;SDS011;61519;60.050;18.582;2022-10-16T13:05:28;5.82;;;1.70;;
73283;SDS011;61519;60.050;18.582;2022-10-16T13:27:26;6.80;;;1.67;;
73283;SDS011;61519;60.050;18.582;2022-10-16T13:29:32;7.03;;;1.40;;
73283;SDS011;61519;60.050;18.582;2022-10-16T13:31:59;5.77;;;1.33;;
73283;SDS011;61519;60.050;18.582;2022-10-16T13:34:26;7.38;;;2.15;;
73283;SDS011;61519;60.050;18.582;2022-10-16T13:36:52;7.93;;;1.52;;
73283;SDS011;61519;60.050;18.582;2022-10-16T13:39:22;7.07;;;1.60;;
73283;SDS011;61519;60.050;18.582;2022-10-16T13:44:31;6.75;;;1.42;;
73283;SDS011;61519;60.050;18.582;2022-10-16T13:47:01;6.47;;;1.98;;
73283;SDS011;61519;60.050;18.582;2022-10-16T13:49:27;5.60;;;1.77;;
73283;SDS011;61519;60.050;18.582;2022-10-16T13:51:56;5.83;;;1.40;;
73283;SDS011;61519;60.050;18.582;2022-10-16T13:54:26;8.32;;;1.70;;
73283;SDS011;61519;60.050;18.582;2022-10-16T13:56:53;7.70;;;1.83;;
73283;SDS011;61519;60.050;18.582;2022-10-16T13:59:26;7.83;;;2.07;;
73283;SDS011;61519;60.050;18.582;2022-10-16T14:02:05;8.68;;;1.75;;
73283;SDS011;61519;60.050;18.582;2022-10-16T14:04:40;6.55;;;2.30;;
73283;SDS011;61519;60.050;18.582;2022-10-16T14:07:05;7.80;;;1.67;;
73283;SDS011;61519;60.050;18.582;2022-10-16T14:09:31;10.20;;;1.80;;
73283;SDS011;61519;60.050;18.582;2022-10-16T14:11:58;7.53;;;1.88;;
73283;SDS011;61519;60.050;18.582;2022-10-16T14:14:26;7.18;;;1.63;;
73283;SDS011;61519;60.050;18.582;2022-10-16T14:16:55;7.87;;;2.20;;
73283;SDS011;61519;60.050;18.582;2022-10-16T14:21:47;8.50;;;1.55;;
73283;SDS011;61519;60.050;18.582;2022-10-16T14:24:33;5.40;;;1.27;;
73283;SDS011;61519;60.050;18.582;2022-10-16T14:26:59;7.15;;;1.67;;
73283;SDS011;61519;60.050;18.582;2022-10-16T14:29:26;4.30;;;1.35;;
73283;SDS011;61519;60.050;18.582;2022-10-16T14:31:57;4.25;;;1.40;;
73283;SDS011;61519;60.050;18.582;2022-10-16T14:34:33;4.70;;;1.08;;
73283;SDS011;61519;60.050;18.582;2022-10-16T14:37:01;3.93;;;0.90;;
73283;SDS011;61519;60.050;18.582;2022-10-16T14:39:34;3.42;;;1.05;;
73283;SDS011;61519;60.050;18.582;2022-10-16T14:42:00;6.80;;;1.23;;
73283;SDS011;61519;60.050;18.582;2022-10-16T14:44:28;4.70;;;1.03;;
73283;SDS011;61519;60.050;18.582;2022-10-16T14:46:57;3.10;;;1.02;;
73283;SDS011;61519;60.050;18.582;2022-10-16T14:49:24;3.00;;;0.90;;
73283;SDS011;61519;60.050;18.582;2022-10-16T14:51:50;5.23;;;1.40;;
73283;SDS011;61519;60.050;18.582;2022-10-16T14:54:17;3.97;;;1.10;;
73283;SDS011;61519;60.050;18.582;2022-10-16T14:56:45;2.60;;;0.98;;
73283;SDS011;61519;60.050;18.582;2022-10-16T14:59:13;4.45;;;1.10;;
73283;SDS011;61519;60.050;18.582;2022-10-16T15:01:42;1.77;;;0.60;;
73283;SDS011;61519;60.050;18.582;2022-10-16T15:04:09;3.58;;;1.38;;
73283;SDS011;61519;60.050;18.582;2022-10-16T15:06:36;3.92;;;1.30;;
73283;SDS011;61519;60.050;18.582;2022-10-16T15:09:02;4.57;;;0.90;;
73283;SDS011;61519;60.050;18.582;2022-10-16T15:11:28;4.40;;;0.90;;
73283;SDS011;61519;60.050;18.582;2022-10-16T15:13:53;3.13;;;0.60;;
73283;SDS011;61519;60.050;18.582;2022-10-16T15:16:19;3.25;;;0.95;;
73283;SDS011;61519;60.050;18.582;2022-10-16T15:18:44;5.50;;;1.20;;
73283;SDS011;61519;60.050;18.582;2022-10-16T15:21:20;2.13;;;0.67;;
73283;SDS011;61519;60.050;18.582;2022-10-16T15:23:49;2.70;;;0.68;;
73283;SDS011;61519;60.050;18.582;2022-10-16T15:26:15;3.60;;;0.90;;
73283;SDS011;61519;60.050;18.582;2022-10-16T15:28:41;4.63;;;1.13;;
73283;SDS011;61519;60.050;18.582;2022-10-16T15:31:07;4.32;;;1.17;;
73283;SDS011;61519;60.050;18.582;2022-10-16T15:33:32;3.53;;;0.77;;
73283;SDS011;61519;60.050;18.582;2022-10-16T15:35:59;4.35;;;0.73;;
73283;SDS011;61519;60.050;18.582;2022-10-16T15:38:25;3.07;;;1.13;;
73283;SDS011;61519;60.050;18.582;2022-10-16T15:40:51;3.75;;;0.95;;
73283;SDS011;61519;60.050;18.582;2022-10-16T15:43:17;4.13;;;1.10;;
73283;SDS011;61519;60.050;18.582;2022-10-16T15:45:43;4.88;;;1.20;;
73283;SDS011;61519;60.050;18.582;2022-10-16T15:48:12;3.38;;;0.75;;
73283;SDS011;61519;60.050;18.582;2022-10-16T15:50:38;4.28;;;1.23;;
73283;SDS011;61519;60.050;18.582;2022-10-16T15:53:04;4.90;;;1.48;;
73283;SDS011;61519;60.050;18.582;2022-10-16T15:55:30;4.47;;;1.00;;
73283;SDS011;61519;60.050;18.582;2022-10-16T15:57:55;2.80;;;1.00;;
73283;SDS011;61519;60.050;18.582;2022-10-16T16:00:20;5.22;;;1.08;;
73283;SDS011;61519;60.050;18.582;2022-10-16T16:02:50;3.40;;;0.73;;
73283;SDS011;61519;60.050;18.582;2022-10-16T16:05:17;4.45;;;0.90;;
73283;SDS011;61519;60.050;18.582;2022-10-16T16:07:43;4.60;;;1.15;;
73283;SDS011;61519;60.050;18.582;2022-10-16T16:10:09;3.27;;;0.83;;
73283;SDS011;61519;60.050;18.582;2022-10-16T16:12:35;3.50;;;1.42;;
73283;SDS011;61519;60.050;18.582;2022-10-16T16:15:02;3.60;;;0.90;;
73283;SDS011;61519;60.050;18.582;2022-10-16T16:17:29;3.70;;;0.93;;
73283;SDS011;61519;60.050;18.582;2022-10-16T16:19:55;3.87;;;0.70;;
73283;SDS011;61519;60.050;18.582;2022-10-16T16:22:21;2.55;;;0.73;;
73283;SDS011;61519;60.050;18.582;2022-10-16T16:24:46;3.40;;;0.93;;
73283;SDS011;61519;60.050;18.582;2022-10-16T16:27:12;2.37;;;0.73;;
73283;SDS011;61519;60.050;18.582;2022-10-16T16:29:38;5.03;;;1.13;;
73283;SDS011;61519;60.050;18.582;2022-10-16T16:32:04;2.35;;;0.85;;
73283;SDS011;61519;60.050;18.582;2022-10-16T16:34:30;2.23;;;0.60;;
73283;SDS011;61519;60.050;18.582;2022-10-16T16:36:55;2.53;;;1.17;;
73283;SDS011;61519;60.050;18.582;2022-10-16T16:39:22;3.83;;;1.23;;